Time;durP1;ratioP1;P1;durP2;ratioP2;P2;SDS_P1;SDS_P2;PMS_P1;PMS_P2;Temp;Humidity;BMP_temperature;BMP_pressure;BME280_temperature;BME280_humidity;BME280_pressure;Samples;Min_cycle;Max_cycle;Signal;HPM_P1;HPM_P2
2023/06/01 00:03:07;;;;;;;4.13;2.70;;;;;;;18.57;37.62;99995.78;10335384;28;20336;-68
2023/06/01 00:08:09;;;;;;;3.50;2.40;;;;;;;17.30;39.57;99951.41;10335131;28;20819;-70
2023/06/01 00:13:11;;;;;;;3.40;2.50;;;;;;;18.36;38.64;99983.63;10339792;28;20205;-70
2023/06/01 00:18:12;;;;;;;3.45;2.67;;;;;;;18.03;38.85;100003.03;10338269;28;20235;-68
2023/06/01 00:23:16;;;;;;;4.77;2.63;;;;;;;18.91;38.14;99976.28;10340742;28;20214;-68
2023/06/01 00:28:18;;;;;;;7.40;3.20;;;;;;;18.49;38.39;99992.59;10338539;28;20246;-68
2023/06/01 00:33:20;;;;;;;5.37;3.00;;;;;;;16.31;41.45;99929.66;10335971;28;20781;-68
2023/06/01 00:38:22;;;;;;;3.87;2.27;;;;;;;15.87;42.28;99940.28;10341831;28;20238;-70
2023/06/01 00:43:24;;;;;;;4.87;2.60;;;;;;;16.80;41.09;99989.31;10334399;28;20796;-71
2023/06/01 00:48:26;;;;;;;4.00;2.73;;;;;;;17.24;40.38;100002.88;10336458;28;20264;-69
2023/06/01 00:53:28;;;;;;;4.40;2.40;;;;;;;17.38;40.49;99999.00;10341574;28;20669;-69
2023/06/01 00:58:30;;;;;;;5.97;2.80;;;;;;;16.09;42.25;99977.72;10365427;28;20230;-69
2023/06/01 01:03:32;;;;;;;3.73;2.70;;;;;;;16.30;41.97;99990.13;10340646;28;20736;-69
2023/06/01 01:08:52;;;;;;;3.40;2.23;;;;;;;16.77;40.95;100009.50;10334613;28;20253;-69
2023/06/01 01:14:25;;;;;;;5.07;2.73;;;;;;;16.95;41.26;100006.03;10337647;28;20891;-69
2023/06/01 01:19:56;;;;;;;4.10;2.60;;;;;;;17.49;40.45;100002.81;10325174;28;20316;-69
2023/06/01 01:25:22;;;;;;;4.87;2.83;;;;;;;16.59;41.58;100036.47;10332749;28;20275;-69
2023/06/01 01:30:27;;;;;;;3.00;2.30;;;;;;;17.18;40.73;100010.00;10334488;28;20235;-70
2023/06/01 01:35:31;;;;;;;7.73;2.93;;;;;;;17.34;40.62;100017.56;10328484;28;20325;-69
2023/06/01 01:40:33;;;;;;;3.77;2.53;;;;;;;16.65;41.06;100042.84;10334038;28;20291;-69
2023/06/01 01:45:35;;;;;;;4.57;2.57;;;;;;;16.55;41.18;100041.47;10339021;28;20229;-70
2023/06/01 01:50:53;;;;;;;3.87;2.53;;;;;;;15.88;42.32;100036.38;10330278;28;20321;-69
2023/06/01 01:55:56;;;;;;;5.20;2.57;;;;;;;15.57;42.62;100028.19;10336397;28;20235;-70
2023/06/01 02:00:58;;;;;;;2.77;2.50;;;;;;;16.32;42.19;100054.69;10329909;28;20744;-69
2023/06/01 02:06:00;;;;;;;4.53;2.60;;;;;;;15.61;42.35;100045.63;10339734;28;20230;-69
2023/06/01 02:11:02;;;;;;;4.70;2.80;;;;;;;16.51;41.51;100040.22;10342869;28;21142;-69
2023/06/01 02:16:04;;;;;;;5.63;3.10;;;;;;;16.02;42.98;100045.25;10342117;28;20238;-69
2023/06/01 02:21:07;;;;;;;4.03;2.50;;;;;;;15.63;43.09;100052.44;10349944;28;20233;-70
2023/06/01 02:26:10;;;;;;;3.20;2.50;;;;;;;15.84;42.81;100066.69;10333644;28;20231;-70
2023/06/01 02:31:13;;;;;;;5.23;2.40;;;;;;;16.35;41.99;100046.19;10341041;28;20244;-69
2023/06/01 02:36:16;;;;;;;5.20;2.73;;;;;;;15.68;42.87;100059.91;10339004;28;20229;-69
2023/06/01 02:41:17;;;;;;;5.33;2.33;;;;;;;16.00;42.13;100068.09;10336794;28;20249;-69
2023/06/01 02:46:19;;;;;;;6.10;2.70;;;;;;;15.40;43.43;100063.66;10332868;28;20373;-70
2023/06/01 02:51:21;;;;;;;4.23;2.57;;;;;;;15.11;43.62;100052.28;10335801;28;20739;-69
2023/06/01 02:56:23;;;;;;;4.33;2.80;;;;;;;16.41;42.03;100069.59;10334909;28;20237;-69
2023/06/01 03:01:26;;;;;;;7.60;3.30;;;;;;;15.76;43.15;100078.56;10330041;28;20240;-69
2023/06/01 03:06:31;;;;;;;6.57;3.10;;;;;;;15.19;43.57;100074.69;10330398;28;20236;-70
2023/06/01 03:11:33;;;;;;;4.53;2.70;;;;;;;15.75;42.84;100085.00;10330182;28;20265;-69
2023/06/01 03:16:35;;;;;;;4.27;3.10;;;;;;;16.48;42.27;100083.88;10324161;28;20237;-70
2023/06/01 03:21:36;;;;;;;3.67;2.50;;;;;;;16.55;42.20;100084.69;10327884;28;20890;-70
2023/06/01 03:26:38;;;;;;;3.53;2.97;;;;;;;16.25;42.25;100092.50;10330642;28;20232;-69
2023/06/01 03:31:41;;;;;;;6.43;2.60;;;;;;;15.40;43.30;100089.78;10328780;28;20240;-70
2023/06/01 03:36:47;;;;;;;5.00;2.77;;;;;;;15.61;43.10;100088.78;10329739;28;20320;-71
2023/06/01 03:41:49;;;;;;;6.93;2.50;;;;;;;16.42;41.84;100087.47;10326841;28;20232;-69
2023/06/01 03:46:51;;;;;;;6.63;2.83;;;;;;;17.06;41.42;100088.31;10329207;28;20261;-69
2023/06/01 03:51:53;;;;;;;6.20;2.70;;;;;;;16.57;41.66;100109.63;10331892;28;20287;-69
2023/06/01 03:56:55;;;;;;;6.47;2.97;;;;;;;16.31;42.01;100125.94;10329773;28;20946;-68
2023/06/01 04:01:56;;;;;;;4.73;2.67;;;;;;;15.86;42.82;100141.00;10338117;28;20759;-69
2023/06/01 04:07:00;;;;;;;3.50;2.70;;;;;;;16.23;42.70;100127.81;10334409;28;20237;-70
2023/06/01 04:12:03;;;;;;;4.70;2.70;;;;;;;16.16;42.46;100136.97;10335556;28;20289;-69
2023/06/01 04:17:06;;;;;;;8.57;3.33;;;;;;;16.38;42.82;100118.63;10339993;28;20777;-69
2023/06/01 04:22:07;;;;;;;6.30;3.43;;;;;;;17.09;41.23;100090.59;10341682;28;20270;-70
2023/06/01 04:27:09;;;;;;;5.10;3.27;;;;;;;16.52;42.25;100141.84;10344084;28;20237;-70
2023/06/01 04:32:12;;;;;;;3.83;2.87;;;;;;;16.60;41.98;100144.31;10339594;28;20775;-69
2023/06/01 04:37:14;;;;;;;3.90;3.20;;;;;;;17.09;41.43;100104.09;10346000;28;20269;-69
2023/06/01 04:42:18;;;;;;;5.27;2.70;;;;;;;17.03;41.46;100115.78;10343009;28;20231;-69
2023/06/01 04:47:21;;;;;;;4.83;2.83;;;;;;;18.15;40.41;100068.88;10349092;28;20233;-69
2023/06/01 04:52:24;;;;;;;4.67;2.77;;;;;;;18.53;40.04;100077.81;10341752;28;20713;-69
2023/06/01 04:57:26;;;;;;;3.47;2.80;;;;;;;18.47;40.24;100076.81;10341204;28;20793;-69
2023/06/01 05:05:23;;;;;;;5.00;2.70;;;;;;;16.66;43.67;100136.38;10442302;27;20864;-69
2023/06/01 05:10:25;;;;;;;6.40;3.53;;;;;;;17.02;42.78;100127.63;10371463;28;20896;-69
2023/06/01 05:15:28;;;;;;;3.13;2.60;;;;;;;17.04;42.96;100114.75;10404212;28;20235;-69
2023/06/01 05:20:29;;;;;;;4.97;2.80;;;;;;;16.80;42.99;100121.72;10458184;28;20738;-69
2023/06/01 05:25:31;;;;;;;7.77;3.00;;;;;;;16.28;43.75;100156.91;10457503;28;20305;-69
2023/06/01 05:30:33;;;;;;;4.00;2.40;;;;;;;16.44;42.99;100151.00;10455280;28;20722;-69
2023/06/01 05:35:36;;;;;;;5.33;2.70;;;;;;;17.13;43.13;100121.53;10448498;28;20238;-69
2023/06/01 05:40:37;;;;;;;4.80;2.80;;;;;;;17.43;43.19;100125.47;10460286;28;20318;-69
2023/06/01 05:45:39;;;;;;;4.70;2.87;;;;;;;17.70;42.55;100107.13;10457340;28;20318;-69
2023/06/01 05:50:41;;;;;;;5.87;2.73;;;;;;;16.96;43.18;100160.97;10456849;28;20240;-69
2023/06/01 05:55:43;;;;;;;3.67;2.93;;;;;;;17.76;42.37;100117.03;10463699;28;20278;-69
2023/06/01 06:00:46;;;;;;;4.70;3.23;;;;;;;18.45;41.61;100093.31;10456889;28;20597;-69
2023/06/01 06:05:49;;;;;;;10.07;3.13;;;;;;;17.69;42.54;100092.75;10460811;28;20726;-69
2023/06/01 06:10:50;;;;;;;5.07;2.42;;;;;;;18.98;41.74;100085.50;10457882;28;20285;-69
2023/06/01 06:15:53;;;;;;;5.20;2.30;;;;;;;18.21;42.14;100091.53;10439123;28;20679;-69
2023/06/01 06:20:55;;;;;;;6.90;2.93;;;;;;;18.21;42.08;100094.25;10434477;28;20715;-69
2023/06/01 06:25:57;;;;;;;4.83;2.90;;;;;;;18.08;42.29;100090.66;10432908;28;20290;-69
2023/06/01 06:30:59;;;;;;;6.67;2.50;;;;;;;18.51;41.58;100086.16;10419160;28;20225;-69
2023/06/01 06:36:01;;;;;;;3.53;2.97;;;;;;;19.58;40.56;100063.56;10437114;28;20247;-69
2023/06/01 06:41:03;;;;;;;5.63;2.83;;;;;;;19.90;41.01;100036.00;10437432;28;20822;-69
2023/06/01 06:46:08;;;;;;;4.18;2.85;;;;;;;19.48;40.15;100043.50;10433675;28;21123;-69
2023/06/01 06:51:10;;;;;;;5.50;2.72;;;;;;;19.72;39.43;100028.88;10438651;28;20800;-69
2023/06/01 06:56:11;;;;;;;5.30;2.67;;;;;;;20.46;39.23;100011.00;10431290;28;20312;-69
2023/06/01 07:01:13;;;;;;;4.20;2.88;;;;;;;20.49;39.38;100002.34;10434116;28;20249;-70
2023/06/01 07:06:15;;;;;;;4.55;2.40;;;;;;;19.22;40.09;100077.38;10431128;28;20342;-69
2023/06/01 07:11:18;;;;;;;5.93;2.60;;;;;;;19.91;38.76;99998.84;10434084;28;20223;-69
2023/06/01 07:16:19;;;;;;;3.65;2.70;;;;;;;18.38;39.13;100072.81;10431420;28;20297;-69
2023/06/01 07:21:21;;;;;;;6.10;2.45;;;;;;;19.82;38.10;100002.97;10431720;28;20684;-69
2023/06/01 07:26:26;;;;;;;4.18;2.90;;;;;;;20.55;37.57;100014.13;10425108;28;20242;-69
2023/06/01 07:31:28;;;;;;;4.93;2.58;;;;;;;20.22;37.72;100024.69;10425290;28;20223;-69
2023/06/01 07:36:36;;;;;;;3.92;2.50;;;;;;;20.62;36.91;99966.69;10429538;28;20232;-68
2023/06/01 07:41:39;;;;;;;4.88;2.55;;;;;;;20.38;37.45;100020.38;10429026;28;20647;-69
2023/06/01 07:46:41;;;;;;;6.50;2.70;;;;;;;21.28;36.41;99938.03;10420778;28;20236;-69
2023/06/01 07:51:43;;;;;;;3.70;2.88;;;;;;;22.11;35.64;99962.44;10427774;28;20279;-69
2023/06/01 07:56:46;;;;;;;4.35;2.53;;;;;;;21.19;36.03;99952.06;10429600;28;20247;-69
2023/06/01 08:01:50;;;;;;;4.30;2.38;;;;;;;21.52;36.03;99957.69;10425679;28;20822;-69
2023/06/01 08:06:55;;;;;;;6.30;2.70;;;;;;;21.28;35.68;99947.00;10426816;28;20780;-69
2023/06/01 08:11:57;;;;;;;4.03;2.63;;;;;;;22.27;35.64;99900.72;10427534;28;20228;-69
2023/06/01 08:17:01;;;;;;;3.85;2.47;;;;;;;20.98;35.64;99948.22;10432271;28;20659;-69
2023/06/01 08:22:05;;;;;;;8.98;2.92;;;;;;;22.42;35.63;99910.91;10428017;28;20237;-69
2023/06/01 08:27:17;;;;;;;4.40;2.60;;;;;;;22.44;35.87;99893.22;10424427;28;21021;-69
2023/06/01 08:32:19;;;;;;;4.32;2.72;;;;;;;20.97;35.63;99948.47;10419608;28;20224;-68
2023/06/01 08:37:21;;;;;;;3.47;2.20;;;;;;;22.99;34.67;99876.66;10423447;28;20290;-70
2023/06/01 08:42:33;;;;;;;6.47;2.70;;;;;;;22.67;35.52;99875.69;10423160;28;20310;-70
2023/06/01 08:47:37;;;;;;;3.47;2.40;;;;;;;22.22;35.36;99912.41;10421117;28;20715;-70
2023/06/01 08:52:43;;;;;;;5.03;2.92;;;;;;;21.60;35.78;99883.72;10421199;28;20232;-70
2023/06/01 08:57:44;;;;;;;3.50;2.47;;;;;;;23.36;34.79;99845.72;10421051;28;20247;-70
2023/06/01 09:02:46;;;;;;;5.18;2.40;;;;;;;23.71;34.63;99836.00;10428213;28;20700;-70
2023/06/01 09:07:49;;;;;;;4.65;2.67;;;;;;;23.13;35.60;99819.69;10424832;28;20239;-70
2023/06/01 09:12:52;;;;;;;5.40;2.50;;;;;;;22.79;34.74;99826.38;10424633;28;20311;-70
2023/06/01 09:18:06;;;;;;;3.17;2.40;;;;;;;23.96;34.20;99775.06;10421313;22;20245;-37
2023/06/01 09:23:08;;;;;;;4.63;2.97;;;;;;;24.10;34.06;99791.72;10390587;28;20247;-37
2023/06/01 09:28:10;;;;;;;4.53;2.92;;;;;;;24.00;33.70;99771.50;10389096;28;20363;-35
2023/06/01 09:33:14;;;;;;;4.95;2.75;;;;;;;23.34;34.31;99820.59;10385207;28;20801;-34
2023/06/01 09:38:22;;;;;;;4.22;2.90;;;;;;;22.78;34.43;99823.91;10392424;28;20236;-34
2023/06/01 09:43:25;;;;;;;3.78;2.80;;;;;;;23.19;35.13;99794.06;10383136;28;20247;-37
2023/06/01 09:48:29;;;;;;;6.30;3.10;;;;;;;24.87;33.98;99750.50;10374286;28;20232;-37
2023/06/01 09:53:42;;;;;;;5.88;3.42;;;;;;;24.68;32.96;99701.91;10394698;28;20674;-35
2023/06/01 09:58:43;;;;;;;6.45;2.85;;;;;;;25.25;33.67;99704.31;10394282;28;20914;-37
2023/06/01 10:03:47;;;;;;;7.93;2.92;;;;;;;25.33;33.79;99733.00;10395179;28;20229;-37
2023/06/01 10:08:51;;;;;;;5.28;2.90;;;;;;;25.09;33.66;99723.53;10395059;28;20233;-37
2023/06/01 10:13:53;;;;;;;4.03;2.70;;;;;;;25.79;33.62;99670.47;10398326;28;20261;-35
2023/06/01 10:18:55;;;;;;;4.30;3.15;;;;;;;26.22;33.48;99669.72;10387708;28;20314;-35
2023/06/01 10:23:57;;;;;;;4.78;2.78;;;;;;;26.68;32.90;99660.06;10375148;28;20244;-35
2023/06/01 10:29:02;;;;;;;6.20;3.40;;;;;;;26.25;33.05;99682.03;10389666;28;20247;-37
2023/06/01 10:34:05;;;;;;;7.35;3.20;;;;;;;25.68;32.27;99695.47;10387228;28;20787;-35
2023/06/01 10:39:26;;;;;;;4.50;3.17;;;;;;;25.42;31.97;99717.59;10394002;28;20725;-37
2023/06/01 10:44:38;;;;;;;5.90;3.17;;;;;;;26.30;32.79;99668.25;10371783;28;20294;-37
2023/06/01 10:49:49;;;;;;;9.15;3.40;;;;;;;25.08;32.39;99735.59;10394251;28;20279;-37
2023/06/01 10:55:15;;;;;;;4.60;3.47;;;;;;;25.38;32.10;99689.16;10391020;28;20268;-35
2023/06/01 11:06:31;;;;;;;6.03;3.63;;;;;;;24.27;31.63;99742.22;10381522;28;20822;-67
2023/06/01 11:11:55;;;;;;;6.57;3.30;;;;;;;25.29;30.18;99687.03;10343801;28;20259;-67
2023/06/01 11:17:28;;;;;;;4.95;2.60;;;;;;;23.61;29.94;99793.91;10348391;28;20225;-67
2023/06/01 11:22:35;;;;;;;5.03;2.70;;;;;;;24.82;28.63;99756.81;10351674;28;20233;-67
2023/06/01 11:27:43;;;;;;;3.35;2.35;;;;;;;25.34;29.09;99702.59;10346285;28;20241;-67
2023/06/01 11:32:48;;;;;;;8.25;2.90;;;;;;;26.10;29.86;99674.78;10349081;28;20312;-66
2023/06/01 11:37:53;;;;;;;2.65;2.00;;;;;;;25.54;29.57;99723.53;10340348;28;20237;-66
2023/06/01 11:42:55;;;;;;;3.58;2.25;;;;;;;26.12;29.26;99647.88;10355685;28;20233;-65
2023/06/01 11:47:57;;;;;;;3.88;2.17;;;;;;;25.17;28.65;99724.88;10334651;28;20241;-68
2023/06/01 11:53:00;;;;;;;3.25;2.50;;;;;;;26.51;29.85;99657.84;10352357;28;20214;-69
2023/06/01 11:58:02;;;;;;;6.38;2.50;;;;;;;25.31;29.55;99714.13;10352097;28;20300;-65
2023/06/01 12:03:07;;;;;;;7.38;2.08;;;;;;;25.77;29.01;99671.84;10353153;28;20644;-66
2023/06/01 12:08:13;;;;;;;3.67;2.47;;;;;;;26.52;28.27;99671.25;10349200;28;20792;-65
2023/06/01 12:13:16;;;;;;;5.38;2.60;;;;;;;25.41;29.66;99730.47;10350241;28;20656;-65
2023/06/01 12:18:30;;;;;;;4.43;2.20;;;;;;;26.65;29.31;99641.44;10314784;28;20238;-66
2023/06/01 12:23:32;;;;;;;3.50;2.42;;;;;;;25.99;29.11;99685.84;10329970;28;20245;-65
2023/06/01 12:28:53;;;;;;;5.15;2.30;;;;;;;25.94;29.14;99679.59;10315588;28;20245;-66
2023/06/01 12:34:01;;;;;;;6.90;2.55;;;;;;;26.07;28.70;99691.81;10318212;28;20244;-67
2023/06/01 12:39:04;;;;;;;4.82;2.78;;;;;;;25.10;29.49;99721.63;10326385;28;20693;-67
2023/06/01 12:44:07;;;;;;;4.80;2.40;;;;;;;26.22;29.02;99653.28;10325344;28;20241;-68
2023/06/01 12:49:13;;;;;;;3.80;2.78;;;;;;;26.15;28.64;99686.50;10317336;28;20737;-66
2023/06/01 12:54:15;;;;;;;5.38;2.65;;;;;;;26.36;27.78;99634.97;10321270;28;20226;-68
2023/06/01 12:59:17;;;;;;;3.78;2.05;;;;;;;27.43;27.92;99587.78;10327545;28;20253;-68
2023/06/01 13:04:19;;;;;;;4.07;2.50;;;;;;;26.28;28.73;99667.72;10325353;28;20237;-68
2023/06/01 13:09:21;;;;;;;3.85;2.45;;;;;;;25.91;28.55;99680.19;10317018;28;20244;-68
2023/06/01 13:14:23;;;;;;;3.70;2.67;;;;;;;24.66;29.13;99695.88;10317876;28;20870;-67
2023/06/01 13:19:25;;;;;;;5.18;2.20;;;;;;;27.09;27.86;99607.31;10313614;28;20308;-67
2023/06/01 13:24:27;;;;;;;3.33;2.20;;;;;;;27.28;29.02;99588.06;10314432;28;20709;-71
2023/06/01 13:29:31;;;;;;;13.13;3.10;;;;;;;26.91;27.96;99631.75;10321562;28;20248;-70
2023/06/01 13:34:33;;;;;;;14.80;3.17;;;;;;;29.32;27.39;99512.31;10321589;28;20229;-74
2023/06/01 13:39:34;;;;;;;3.15;2.22;;;;;;;27.22;27.87;99652.44;10320805;28;20244;-72
2023/06/01 13:44:36;;;;;;;4.78;2.20;;;;;;;26.72;29.10;99658.34;10313582;28;20255;-72
2023/06/01 13:49:38;;;;;;;5.13;2.20;;;;;;;27.83;27.12;99601.06;10304219;28;20296;-72
2023/06/01 13:54:39;;;;;;;5.97;2.53;;;;;;;25.64;28.56;99678.78;10321453;28;20311;-72
2023/06/01 13:59:41;;;;;;;4.85;2.40;;;;;;;26.78;28.83;99646.22;10322079;28;20822;-72
2023/06/01 14:04:43;;;;;;;11.65;2.90;;;;;;;25.23;28.69;99660.78;10323261;28;20752;-72
2023/06/01 14:09:45;;;;;;;27.20;4.28;;;;;;;28.02;27.70;99571.53;10321318;28;20731;-73
2023/06/01 14:14:47;;;;;;;4.82;2.60;;;;;;;26.64;28.84;99620.63;10314834;28;20226;-74
2023/06/01 14:19:49;;;;;;;4.32;2.38;;;;;;;26.20;28.10;99636.28;10319806;28;20284;-73
2023/06/01 14:24:51;;;;;;;6.38;2.60;;;;;;;24.89;28.26;99668.94;10315071;28;20250;-73
2023/06/01 14:29:53;;;;;;;3.38;2.42;;;;;;;27.00;27.34;99618.16;10320749;28;20265;-73
2023/06/01 14:34:54;;;;;;;5.03;2.85;;;;;;;25.67;28.11;99669.97;10318797;28;20280;-73
2023/06/01 14:39:56;;;;;;;6.15;2.42;;;;;;;28.76;27.05;99504.41;10314330;28;20245;-75
2023/06/01 14:44:58;;;;;;;3.50;2.30;;;;;;;27.73;27.56;99563.59;10318164;28;20242;-73
2023/06/01 14:50:07;;;;;;;3.40;2.33;;;;;;;28.75;27.48;99499.19;10313824;28;20460;-72
2023/06/01 14:55:09;;;;;;;3.03;2.10;;;;;;;26.27;28.57;99609.34;10319641;28;20316;-73
2023/06/01 15:00:15;;;;;;;4.80;2.17;;;;;;;26.63;28.67;99606.06;10317754;28;20229;-75
2023/06/01 15:05:17;;;;;;;6.10;2.25;;;;;;;27.45;28.01;99535.28;10307440;28;20234;-73
2023/06/01 15:10:19;;;;;;;5.05;2.53;;;;;;;26.46;27.94;99612.09;10311518;28;20728;-72
2023/06/01 15:15:21;;;;;;;3.80;2.10;;;;;;;26.26;27.42;99620.59;10312726;28;20790;-72
2023/06/01 15:20:23;;;;;;;4.40;2.03;;;;;;;26.30;26.43;99627.09;10356187;23;20287;-35
2023/06/01 15:25:25;;;;;;;4.50;2.20;;;;;;;27.06;26.14;99605.16;10339558;28;20241;-35
2023/06/01 15:30:30;;;;;;;2.38;1.90;;;;;;;27.00;26.71;99579.72;10340552;28;20219;-35
2023/06/01 15:35:33;;;;;;;5.00;2.30;;;;;;;27.15;26.41;99575.91;10340085;28;20242;-36
2023/06/01 15:40:34;;;;;;;5.95;2.30;;;;;;;26.92;26.73;99577.66;10344530;28;20225;-36
2023/06/01 15:45:36;;;;;;;2.15;1.85;;;;;;;27.18;27.49;99561.56;10346242;28;20236;-36
2023/06/01 15:50:38;;;;;;;2.90;2.08;;;;;;;27.76;27.07;99543.75;10336090;28;20233;-36
2023/06/01 15:55:41;;;;;;;3.88;2.08;;;;;;;27.95;26.67;99535.41;10345144;28;20328;-36
2023/06/01 16:00:43;;;;;;;3.50;2.22;;;;;;;28.30;26.86;99521.19;10346402;28;20241;-36
2023/06/01 16:05:45;;;;;;;5.20;2.13;;;;;;;28.01;26.34;99525.09;10354683;28;20336;-36
2023/06/01 16:10:47;;;;;;;2.83;1.88;;;;;;;27.24;27.47;99560.38;10346386;28;20307;-36
2023/06/01 16:15:49;;;;;;;2.60;2.22;;;;;;;26.92;27.02;99589.47;10350525;28;20229;-36
2023/06/01 16:20:50;;;;;;;11.68;2.05;;;;;;;27.57;26.55;99554.81;10352879;28;20242;-36
2023/06/01 16:25:52;;;;;;;3.83;2.30;;;;;;;29.03;25.84;99465.97;10371505;28;20240;-36
2023/06/01 16:30:54;;;;;;;4.75;2.10;;;;;;;26.83;27.64;99576.72;10394168;28;20851;-36
2023/06/01 16:35:56;;;;;;;4.57;1.90;;;;;;;27.24;27.23;99552.13;10395182;28;21000;-36
2023/06/01 16:40:58;;;;;;;7.93;2.50;;;;;;;27.50;26.66;99533.25;10395000;28;20228;-36
2023/06/01 16:46:00;;;;;;;4.18;2.22;;;;;;;27.74;25.74;99540.50;10388066;28;20283;-36
2023/06/01 16:51:03;;;;;;;2.85;2.10;;;;;;;27.17;26.31;99579.16;10395775;28;20698;-36
2023/06/01 16:56:06;;;;;;;4.10;2.08;;;;;;;27.87;26.03;99555.38;10396027;28;20237;-36
2023/06/01 17:01:08;;;;;;;6.28;2.20;;;;;;;27.70;26.28;99556.00;10384795;28;20265;-36
2023/06/01 17:06:10;;;;;;;4.30;2.28;;;;;;;27.96;26.32;99541.72;10392002;28;20228;-36
2023/06/01 17:11:11;;;;;;;2.90;1.88;;;;;;;27.08;26.88;99570.81;10389222;28;20232;-36
2023/06/01 17:16:13;;;;;;;6.57;2.15;;;;;;;27.03;26.63;99575.56;10390654;28;20337;-36
2023/06/01 17:21:15;;;;;;;3.10;2.20;;;;;;;26.94;27.22;99576.25;10406704;28;20582;-36
2023/06/01 17:26:20;;;;;;;3.50;1.85;;;;;;;26.84;27.05;99564.63;10388776;28;20240;-36
2023/06/01 17:31:22;;;;;;;5.13;2.10;;;;;;;26.97;26.71;99565.78;10389351;28;20643;-36
2023/06/01 17:36:23;;;;;;;6.18;2.00;;;;;;;26.00;27.60;99572.34;10390328;28;20444;-36
2023/06/01 17:41:26;;;;;;;3.85;1.90;;;;;;;28.32;26.84;99486.72;10394412;28;20228;-36
2023/06/01 17:46:28;;;;;;;4.40;1.90;;;;;;;27.54;27.20;99538.16;10391229;28;20236;-36
2023/06/01 17:51:31;;;;;;;4.30;1.90;;;;;;;26.33;28.26;99577.16;10399309;28;20235;-36
2023/06/01 17:56:33;;;;;;;4.75;2.10;;;;;;;26.70;28.06;99564.53;10396740;28;20278;-36
2023/06/01 18:01:35;;;;;;;3.00;2.25;;;;;;;26.81;27.75;99549.56;10386842;28;20256;-36
2023/06/01 18:06:37;;;;;;;3.30;1.88;;;;;;;27.62;28.19;99520.94;10391270;28;20240;-36
2023/06/01 18:11:39;;;;;;;5.68;1.90;;;;;;;27.47;27.87;99527.56;10401415;28;20328;-37
2023/06/01 18:16:42;;;;;;;4.00;1.92;;;;;;;26.31;28.54;99568.41;10397141;28;20262;-37
2023/06/01 18:21:44;;;;;;;4.28;1.92;;;;;;;26.39;28.72;99554.03;10395300;28;20316;-37
2023/06/01 18:26:46;;;;;;;4.38;1.85;;;;;;;25.76;29.12;99563.31;10386062;28;20748;-37
2023/06/01 18:31:48;;;;;;;4.32;1.98;;;;;;;25.66;29.83;99547.81;10393716;28;20239;-36
2023/06/01 18:36:50;;;;;;;2.97;1.63;;;;;;;26.95;28.99;99508.44;10384047;28;20229;-36
2023/06/01 18:41:52;;;;;;;3.22;1.90;;;;;;;27.04;28.88;99520.38;10398548;28;20255;-36
2023/06/01 18:46:54;;;;;;;2.40;1.80;;;;;;;27.13;28.76;99524.03;10390814;28;20244;-37
2023/06/01 18:51:56;;;;;;;2.97;1.98;;;;;;;27.40;28.94;99505.97;10390178;28;20687;-37
2023/06/01 18:56:59;;;;;;;3.97;2.05;;;;;;;27.74;28.60;99514.97;10387418;28;21030;-36
2023/06/01 19:02:01;;;;;;;4.47;1.90;;;;;;;27.75;28.85;99513.81;10382556;28;20237;-36
2023/06/01 19:07:04;;;;;;;2.63;1.95;;;;;;;27.93;29.02;99507.38;10387871;28;20322;-36
2023/06/01 19:12:06;;;;;;;4.35;2.10;;;;;;;27.40;28.84;99529.91;10386516;28;20232;-36
2023/06/01 19:17:10;;;;;;;2.95;2.20;;;;;;;26.68;29.54;99548.38;10374100;28;20241;-37
2023/06/01 19:22:12;;;;;;;5.03;2.20;;;;;;;25.43;30.60;99588.59;10337771;28;20231;-36
2023/06/01 19:27:15;;;;;;;5.10;2.42;;;;;;;25.04;31.33;99597.69;10356496;28;20252;-36
2023/06/01 19:32:17;;;;;;;4.80;2.40;;;;;;;25.34;31.93;99600.44;10360888;28;20291;-36
2023/06/01 19:37:20;;;;;;;5.00;2.83;;;;;;;23.38;33.88;99616.94;10359816;28;20256;-36
2023/06/01 19:42:40;;;;;;;8.10;3.88;;;;;;;22.97;35.82;99619.66;10359793;28;20236;-36
2023/06/01 19:47:50;;;;;;;4.95;4.05;;;;;;;23.30;36.05;99625.66;10360041;28;20243;-36
2023/06/01 19:52:52;;;;;;;6.28;4.38;;;;;;;23.30;36.54;99637.44;10363325;28;20779;-36
2023/06/01 19:57:54;;;;;;;5.78;4.60;;;;;;;22.54;37.38;99636.22;10359913;28;20261;-36
2023/06/01 20:02:59;;;;;;;8.95;5.22;;;;;;;22.45;37.02;99638.59;10366390;28;20232;-36
2023/06/01 20:08:06;;;;;;;6.88;5.20;;;;;;;22.87;36.23;99636.81;10358572;28;20259;-36
2023/06/01 20:13:08;;;;;;;8.90;5.93;;;;;;;21.97;36.65;99665.91;10354447;28;20312;-38
2023/06/01 20:18:10;;;;;;;8.90;5.95;;;;;;;23.60;34.87;99633.00;10362216;28;20236;-35
2023/06/01 20:23:15;;;;;;;8.52;6.32;;;;;;;22.73;35.14;99684.81;10365440;28;20236;-35
2023/06/01 20:28:51;;;;;;;8.95;6.60;;;;;;;22.04;35.29;99711.19;10364303;28;20253;-35
2023/06/01 20:33:54;;;;;;;10.85;6.88;;;;;;;21.59;35.96;99721.44;10361850;28;20678;-35
2023/06/01 20:38:58;;;;;;;8.30;6.47;;;;;;;22.05;34.42;99708.19;10359690;28;20800;-35
2023/06/01 20:44:01;;;;;;;9.82;6.88;;;;;;;21.61;35.49;99735.63;10363894;28;20236;-38
2023/06/01 20:49:08;;;;;;;10.07;7.55;;;;;;;21.49;35.52;99737.69;10362113;28;20379;-38
2023/06/01 20:54:13;;;;;;;11.23;6.55;;;;;;;21.60;34.66;99742.16;10354655;28;20232;-38
2023/06/01 20:59:26;;;;;;;9.45;6.60;;;;;;;21.21;34.82;99747.75;10361129;28;20727;-35
2023/06/01 21:04:29;;;;;;;9.43;6.57;;;;;;;20.76;35.05;99755.09;10356138;28;20237;-36
2023/06/01 21:09:31;;;;;;;9.15;6.93;;;;;;;20.68;35.57;99775.41;10361133;28;20236;-38
2023/06/01 21:14:33;;;;;;;9.48;7.10;;;;;;;20.83;35.27;99772.09;10354627;28;20867;-36
2023/06/01 21:19:37;;;;;;;10.90;7.00;;;;;;;20.78;34.74;99787.50;10352483;28;20893;-35
2023/06/01 21:24:38;;;;;;;7.68;6.28;;;;;;;20.13;35.18;99784.38;10360305;28;21001;-35
2023/06/01 21:29:40;;;;;;;8.60;6.35;;;;;;;20.19;34.86;99799.69;10355415;28;20233;-35
2023/06/01 21:34:42;;;;;;;8.10;6.18;;;;;;;21.38;34.29;99783.88;10357934;28;20241;-36
2023/06/01 21:39:44;;;;;;;7.88;5.80;;;;;;;20.91;34.44;99825.19;10352718;28;20244;-36
2023/06/01 21:44:46;;;;;;;8.63;6.20;;;;;;;20.44;34.82;99829.16;10358677;28;20248;-36
2023/06/01 21:49:48;;;;;;;8.23;6.10;;;;;;;20.63;34.39;99840.59;10361508;28;20263;-35
2023/06/01 21:54:49;;;;;;;8.60;5.63;;;;;;;20.84;34.82;99819.94;10349512;28;20244;-35
2023/06/01 21:59:52;;;;;;;9.38;6.25;;;;;;;19.58;35.63;99827.44;10354822;28;20429;-35
2023/06/01 22:04:54;;;;;;;7.78;5.28;;;;;;;20.04;35.31;99840.19;10353984;28;20638;-35
2023/06/01 22:09:57;;;;;;;8.27;5.63;;;;;;;19.78;35.20;99842.47;10364182;28;21009;-38
2023/06/01 22:15:00;;;;;;;7.88;5.75;;;;;;;20.27;34.79;99850.91;10359212;28;20248;-36
2023/06/01 22:20:03;;;;;;;7.20;5.05;;;;;;;19.76;35.30;99852.75;10358326;28;20244;-36
2023/06/01 22:25:05;;;;;;;8.45;5.45;;;;;;;20.25;35.17;99842.19;10359634;28;20240;-35
2023/06/01 22:30:08;;;;;;;8.90;4.93;;;;;;;19.48;35.62;99851.66;10351734;28;20228;-35
2023/06/01 22:35:10;;;;;;;7.20;5.10;;;;;;;21.86;33.79;99802.25;10358594;28;20240;-38
2023/06/01 22:40:12;;;;;;;6.97;4.78;;;;;;;19.86;35.70;99861.06;10358318;28;20229;-35
2023/06/01 22:45:14;;;;;;;7.47;5.30;;;;;;;20.13;35.20;99852.28;10359400;28;20272;-35
2023/06/01 22:50:19;;;;;;;8.82;5.15;;;;;;;19.07;35.74;99861.69;10364154;28;20256;-35
2023/06/01 22:55:21;;;;;;;9.00;4.70;;;;;;;19.34;35.88;99867.41;10353606;28;20703;-35
2023/06/01 23:00:23;;;;;;;7.78;5.30;;;;;;;19.97;36.10;99848.47;10362325;28;20314;-37
2023/06/01 23:05:26;;;;;;;6.50;4.72;;;;;;;19.74;35.55;99884.75;10361756;28;20263;-35
2023/06/01 23:10:28;;;;;;;8.80;5.00;;;;;;;19.30;35.67;99885.25;10359784;28;20315;-35
2023/06/01 23:15:30;;;;;;;8.70;5.10;;;;;;;19.97;35.50;99866.69;10359521;28;20283;-38
2023/06/01 23:20:35;;;;;;;7.60;4.75;;;;;;;18.59;36.69;99871.75;10355632;28;20576;-38
2023/06/01 23:25:37;;;;;;;6.38;4.63;;;;;;;18.55;37.28;99864.31;10356124;28;20232;-38
2023/06/01 23:30:39;;;;;;;9.98;4.72;;;;;;;18.08;37.62;99844.25;10358013;28;20247;-35
2023/06/01 23:35:42;;;;;;;7.90;4.88;;;;;;;18.71;38.09;99860.91;10361623;28;20664;-38